Dades meteomassalio
Diari Summary for Febrer 25, 2017 Units:  Metric    English   Both
« Previous Day
Next Day »
Diari Semanal Mensual Anual Personalitzat
  Maxima: Minima: Mijana:
Temperatura: -17.8 °C -16.9 °C -13 °C
Rosada: -17.8 °C -18.5 °C -17.1 °C
Humitat: Humidity % 30 % 63 %
Velocitat del vent: 0 km/h 0 km/h 7.2 km/h
Racha vent: 0 km/h - -
Vent:- - SW
Pressio: 0 hPa 34486.4 hPa -
Pluja: 0 mm    
Historical Graphs
 
 
Tabular Data for Febrer 25, 2017
Time Temperature Dew Point Pressure Wind Wind Speed Wind Gust Humidity Rainfall Rate (Hourly) solar Conditions
-17.8 °C -17.8 °C 0 hPa Calm     Humidity % 0 mm SolarRadiationWatts/m^2 W/m2 Conditions
00:00 -13.8 °C -17.3 °C 34544 hPa WSW 35.7 km/h 35.7 km/h 64 % 0 mm 0.0 W/m2 RA
00:05 -13.8 °C -17.2 °C 34544 hPa West 38.8 km/h 38.8 km/h 65 % 0 mm 0.0 W/m2 CLR
00:10 -13.8 °C -17.1 °C 34544 hPa WSW 31.1 km/h 31.1 km/h 66 % 0 mm 0.0 W/m2 CLR
00:15 -13.9 °C -17.1 °C 34554.1 hPa West 23.8 km/h 23.8 km/h 67 % 0 mm 0.0 W/m2 CLR
00:20 -13.9 °C -17.1 °C 34544 hPa WSW 31.1 km/h 31.1 km/h 67 % 0 mm 0.0 W/m2 CLR
00:25 -13.9 °C -17 °C 34544 hPa West 38.8 km/h 38.8 km/h 68 % 0 mm 0.0 W/m2 CLR
00:30 -13.9 °C -17 °C 34554.1 hPa WSW 29.8 km/h 29.8 km/h 68 % 0 mm 0.0 W/m2 CLR
00:35 -14 °C -17.1 °C 34554.1 hPa WSW 20.8 km/h 20.8 km/h 68 % 0 mm 0.0 W/m2 CLR
00:40 -14.1 °C -17 °C 34554.1 hPa WSW 11.9 km/h 11.9 km/h 69 % 0 mm 0.0 W/m2 CLR
00:45 -14.1 °C -16.9 °C 34554.1 hPa WSW 32.8 km/h 32.8 km/h 70 % 0 mm 0.0 W/m2 CLR
00:50 -14.1 °C -16.9 °C 34554.1 hPa WSW 35.7 km/h 35.7 km/h 70 % 0 mm 0.0 W/m2 CLR
00:55 -14.1 °C -17 °C 34554.1 hPa SW 15 km/h 15 km/h 70 % 0 mm 0.0 W/m2 CLR
01:00 -14.2 °C -16.9 °C 34567.7 hPa West 10.3 km/h 10.3 km/h 71 % 0 mm 0.0 W/m2 CLR
01:05 -14.2 °C -16.9 °C 34567.7 hPa SW 15 km/h 15.3 km/h 71 % 0 mm 0.0 W/m2 CLR
01:10 -14.2 °C -16.8 °C 34567.7 hPa WSW 29.8 km/h 29.8 km/h 72 % 0 mm 0.0 W/m2 CLR
01:11 -14.2 °C -16.8 °C 34567.7 hPa WSW 29.8 km/h 29.8 km/h 72 % 0 mm 0.0 W/m2 CLR
01:16 -14.2 °C -16.8 °C 34567.7 hPa WSW 29.8 km/h 29.8 km/h 72 % 0 mm 0.0 W/m2 CLR
01:21 -14.3 °C -16.8 °C 34567.7 hPa SW 15 km/h 15 km/h 72 % 0 mm 0.0 W/m2 CLR
01:26 -14.3 °C -16.9 °C 34567.7 hPa WSW 9 km/h 9 km/h 72 % 0 mm 0.0 W/m2 CLR
01:31 -14.4 °C -16.9 °C 34567.7 hPa WSW 20.9 km/h 20.9 km/h 73 % 0 mm 0.0 W/m2 CLR
01:36 -14.4 °C -16.9 °C 34554.1 hPa WSW 17.9 km/h 17.9 km/h 73 % 0 mm 0.0 W/m2 CLR
01:41 -14.5 °C -17 °C 34554.1 hPa WSW 11.9 km/h 11.9 km/h 73 % 0 mm 0.0 W/m2 CLR
01:46 -14.5 °C -16.9 °C 34554.1 hPa WSW 17.9 km/h 17.9 km/h 74 % 0 mm 0.0 W/m2 CLR
01:51 -14.6 °C -16.9 °C 34554.1 hPa SW 17.9 km/h 17.9 km/h 74 % 0 mm 0.0 W/m2 CLR
01:56 -14.6 °C -16.9 °C 34554.1 hPa WSW 12.9 km/h 12.9 km/h 75 % 0 mm 0.0 W/m2 CLR
02:01 -14.6 °C -16.9 °C 34554.1 hPa WSW 20.9 km/h 20.9 km/h 75 % 0 mm 0.0 W/m2 CLR
02:06 -14.6 °C -16.8 °C 34554.1 hPa SW 23.8 km/h 23.8 km/h 75 % 0 mm 0.0 W/m2 CLR
02:12 -14.6 °C -16.8 °C 34554.1 hPa WSW 15 km/h 15 km/h 75 % 0 mm 0.0 W/m2 CLR
02:17 -14.6 °C -16.8 °C 34554.1 hPa WNW 26.9 km/h 26.9 km/h 75 % 0 mm 0.0 W/m2 CLR
02:22 -14.4 °C -16.7 °C 34554.1 hPa WSW 29.8 km/h 29.8 km/h 75 % 0 mm 0.0 W/m2 CLR
02:27 -14.3 °C -16.6 °C 34554.1 hPa WNW 35.7 km/h 35.7 km/h 75 % 0 mm 0.0 W/m2 CLR
02:32 -14.3 °C -16.6 °C 34554.1 hPa West 20.9 km/h 20.9 km/h 75 % 0 mm 0.0 W/m2 CLR
02:37 -14.4 °C -16.7 °C 34567.7 hPa WSW 29.8 km/h 29.8 km/h 75 % 0 mm 0.0 W/m2 CLR
02:42 -14.4 °C -16.7 °C 34567.7 hPa WSW 23.8 km/h 23.8 km/h 75 % 0 mm 0.0 W/m2 CLR
02:47 -14.5 °C -16.8 °C 34554.1 hPa Calm     75 % 0 mm 0.0 W/m2 CLR
02:52 -14.6 °C -16.8 °C 34554.1 hPa WSW 26.9 km/h 26.9 km/h 76 % 0 mm 0.0 W/m2 CLR
02:57 -14.7 °C -16.8 °C 34554.1 hPa Calm     76 % 0 mm 0.0 W/m2 CLR
03:02 -14.8 °C -16.8 °C 34554.1 hPa SW 5.1 km/h 5.1 km/h 77 % 0 mm 0.0 W/m2 CLR
03:07 -14.8 °C -16.8 °C 34554.1 hPa SW 6 km/h   78 % 0 mm 0.0 W/m2 CLR
03:12 -14.9 °C -16.9 °C 34554.1 hPa Calm     78 % 0 mm 0.0 W/m2 CLR
03:17 -14.9 °C -16.8 °C 34554.1 hPa SW 9 km/h 9 km/h 79 % 0 mm 0.0 W/m2 CLR
03:22 -15 °C -16.9 °C 34554.1 hPa SW 9 km/h 9 km/h 78 % 0 mm 0.0 W/m2 CLR
03:27 -15.1 °C -16.9 °C 34554.1 hPa SW 9 km/h 9 km/h 79 % 0 mm 0.0 W/m2 CLR
03:32 -15.1 °C -16.9 °C 34554.1 hPa WSW 9 km/h 9 km/h 79 % 0 mm 0.0 W/m2 CLR
03:37 -15.1 °C -16.8 °C 34554.1 hPa Calm     80 % 0 mm 0.0 W/m2 CLR
03:42 -15.1 °C -16.8 °C 34554.1 hPa WSW 15 km/h 15 km/h 80 % 0 mm 0.0 W/m2 CLR
03:47 -15.1 °C -16.9 °C 34554.1 hPa WSW 17.9 km/h 17.9 km/h 79 % 0 mm 0.0 W/m2 CLR
03:52 -15.1 °C -16.9 °C 34554.1 hPa WSW 9 km/h 9 km/h 79 % 0 mm 0.0 W/m2 CLR
03:57 -15.1 °C -16.9 °C 34554.1 hPa SW 6 km/h 6 km/h 79 % 0 mm 0.0 W/m2 CLR
04:02 -15.2 °C -17 °C 34554.1 hPa SW 2.6 km/h   79 % 0 mm 0.0 W/m2 CLR
04:07 -15.3 °C -17.1 °C 34554.1 hPa SW 3.1 km/h   80 % 0 mm 0.0 W/m2 CLR
04:12 -15.4 °C -17.1 °C 34544 hPa SW 11.9 km/h 11.9 km/h 81 % 0 mm 0.0 W/m2 CLR
04:17 -15.4 °C -17.1 °C 34554.1 hPa WSW 11.9 km/h 11.9 km/h 81 % 0 mm 0.0 W/m2 CLR
04:22 -15.3 °C -17 °C 34544 hPa West 23.8 km/h 23.8 km/h 81 % 0 mm 0.0 W/m2 CLR
04:27 -15.2 °C -17 °C 34544 hPa WSW 9 km/h 9 km/h 80 % 0 mm 0.0 W/m2 CLR
04:32 -15.1 °C -16.9 °C 34544 hPa WSW 15.6 km/h 15.6 km/h 80 % 0 mm 0.0 W/m2 CLR
04:37 -15.1 °C -16.9 °C 34544 hPa West 20.9 km/h 20.9 km/h 79 % 0 mm 0.0 W/m2 CLR
04:42 -14.9 °C -16.9 °C 34544 hPa West 9 km/h 9 km/h 78 % 0 mm 0.0 W/m2 CLR
04:47 -14.9 °C -17.1 °C 34544 hPa Calm     77 % 0 mm 0.0 W/m2 CLR
04:52 -15.1 °C -17.1 °C 34554.1 hPa Calm     78 % 0 mm 0.0 W/m2 CLR
04:57 -15.3 °C -17.2 °C 34554.1 hPa Calm     78 % 0 mm 0.0 W/m2 CLR
05:02 -15.4 °C -17.3 °C 34554.1 hPa Calm     79 % 0 mm 0.0 W/m2 CLR
05:07 -15.5 °C -17.3 °C 34554.1 hPa Calm     80 % 0 mm 0.0 W/m2 CLR
05:12 -15.5 °C -17.2 °C 34554.1 hPa Calm     81 % 0 mm 0.0 W/m2 CLR
05:13 -15.5 °C -17.2 °C 34554.1 hPa Calm     81 % 0 mm 0.0 W/m2 CLR
05:18 -15.5 °C -17.3 °C 34554.1 hPa Calm     80 % 0 mm 0.0 W/m2 CLR
05:23 -15.5 °C -17.3 °C 34554.1 hPa Calm     80 % 0 mm 0.0 W/m2 CLR
05:28 -15.6 °C -17.3 °C 34554.1 hPa Calm     80 % 0 mm 0.0 W/m2 CLR
05:33 -15.5 °C -17.3 °C 34554.1 hPa WSW 9 km/h 9 km/h 80 % 0 mm 0.0 W/m2 CLR
05:38 -15.5 °C -17.3 °C 34554.1 hPa WSW 9 km/h 9 km/h 80 % 0 mm 0.0 W/m2 CLR
05:43 -15.5 °C -17.4 °C 34554.1 hPa WSW 9 km/h 9 km/h 79 % 0 mm 0.0 W/m2 CLR
05:48 -15.7 °C -17.4 °C 34554.1 hPa SW 9 km/h 9 km/h 80 % 0 mm 0.0 W/m2 CLR
05:53 -15.7 °C -17.4 °C 34554.1 hPa SW 9 km/h 9 km/h 80 % 0 mm 0.0 W/m2 CLR
05:58 -15.8 °C -17.6 °C 34554.1 hPa SW 3.1 km/h   80 % 0 mm 0.0 W/m2 CLR
06:03 -15.9 °C -17.7 °C 34554.1 hPa Calm     80 % 0 mm 0.0 W/m2 CLR
06:08 -16.1 °C -17.6 °C 34554.1 hPa SW 10.3 km/h 10.3 km/h 82 % 0 mm 0.0 W/m2 CLR
06:13 -16.1 °C -17.6 °C 34554.1 hPa SW 11.9 km/h 11.9 km/h 83 % 0 mm 0.0 W/m2 CLR
06:18 -16.1 °C -17.6 °C 34554.1 hPa WSW 9 km/h 9 km/h 82 % 0 mm 0.0 W/m2 CLR
06:23 -16.1 °C -17.6 °C 34554.1 hPa WSW 9 km/h 9 km/h 82 % 0 mm 0.0 W/m2 CLR
06:28 -15.9 °C -17.5 °C 34567.7 hPa WSW 9 km/h 9 km/h 82 % 0 mm 0.0 W/m2 CLR
06:33 -15.8 °C -17.4 °C 34567.7 hPa WSW 9 km/h 9 km/h 81 % 0 mm 0.0 W/m2 CLR
06:38 -15.7 °C -17.4 °C 34567.7 hPa WSW 9 km/h 9 km/h 80 % 0 mm 0.0 W/m2 CLR
06:43 -15.7 °C -17.6 °C 34567.7 hPa WSW 9 km/h 9 km/h 79 % 0 mm 0.0 W/m2 CLR
06:48 -15.6 °C -17.6 °C 34567.7 hPa WSW 9 km/h 9 km/h 78 % 0 mm 0.0 W/m2 CLR
06:53 -15.8 °C -17.7 °C 34567.7 hPa Calm     78 % 0 mm 0.0 W/m2 CLR
06:58 -16.1 °C -17.9 °C 34567.7 hPa SW 9 km/h 9 km/h 79 % 0 mm 0.0 W/m2 CLR
07:03 -16.3 °C -17.9 °C 34567.7 hPa SW 9 km/h 9 km/h 81 % 0 mm 0.0 W/m2 CLR
07:08 -16.5 °C -18 °C 34567.7 hPa Calm     82 % 0 mm 0.0 W/m2 CLR
07:13 -16.4 °C -17.9 °C 34567.7 hPa West 11.9 km/h 11.9 km/h 83 % 0 mm 0.0 W/m2 CLR
07:18 -16.2 °C -17.6 °C 34567.7 hPa West 9 km/h 9 km/h 83 % 0 mm 0.0 W/m2 CLR
07:23 -16.2 °C -17.9 °C 34567.7 hPa Calm     80 % 0 mm 0.0 W/m2 CLR
07:29 -16.3 °C -18 °C 34567.7 hPa Calm     81 % 0 mm 0.0 W/m2 CLR
07:34 -16.6 °C -18.1 °C 34567.7 hPa Calm     82 % 0 mm 0.0 W/m2 OVC
07:39 -16.7 °C -18.1 °C 34577.8 hPa Calm     83 % 0 mm 5.0 W/m2 OVC
07:44 -16.8 °C -18.2 °C 34577.8 hPa Calm     83 % 0 mm 7.0 W/m2 OVC
07:49 -16.9 °C -18.2 °C 34577.8 hPa Calm     84 % 0 mm 11.0 W/m2 BKN
07:54 -16.9 °C -18.2 °C 34577.8 hPa Calm     85 % 0 mm 14.0 W/m2 BKN
07:59 -16.9 °C -18.1 °C 34577.8 hPa Calm     86 % 0 mm 18.0 W/m2 BKN
08:04 -16.9 °C -18.1 °C 34591.4 hPa Calm     86 % 0 mm 21.0 W/m2 BKN
08:09 -16.8 °C -18 °C 34591.4 hPa Calm     86 % 0 mm 25.0 W/m2 BKN
08:14 -16.7 °C -17.9 °C 34591.4 hPa Calm     86 % 0 mm 32.0 W/m2 BKN
08:19 -16.6 °C -17.8 °C 34591.4 hPa Calm     86 % 0 mm 46.0 W/m2 BKN
08:24 -16.5 °C -17.8 °C 34591.4 hPa Calm     85 % 0 mm 56.0 W/m2 SCT
08:29 -16.3 °C -17.6 °C 34591.4 hPa Calm     85 % 0 mm 54.0 W/m2 SCT
08:34 -16.3 °C -17.6 °C 34591.4 hPa Calm     84 % 0 mm 53.0 W/m2 SCT
08:39 -16.2 °C -17.6 °C 34591.4 hPa Calm     84 % 0 mm 63.0 W/m2 SCT
08:44 -16.2 °C -17.6 °C 34591.4 hPa Calm     84 % 0 mm 104.0 W/m2 FEW
08:49 -16.1 °C -17.5 °C 34601.5 hPa Calm     83 % 0 mm 113.0 W/m2 CLR
08:54 -15.9 °C -17.3 °C 34591.4 hPa Calm     83 % 0 mm 93.0 W/m2 CLR
08:59 -15.7 °C -17.3 °C 34591.4 hPa WSW 9 km/h 9 km/h 81 % 0 mm 79.0 W/m2 CLR
09:04 -15.4 °C -17.2 °C 34591.4 hPa Calm     80 % 0 mm 186.0 W/m2 CLR
09:09 -15.4 °C -17.1 °C 34591.4 hPa Calm     80 % 0 mm 156.0 W/m2 CLR
09:14 -15.2 °C -17.1 °C 34591.4 hPa Calm     79 % 0 mm 153.0 W/m2 CLR
09:19 -14.9 °C -16.8 °C 34601.5 hPa Calm     78 % 0 mm 167.0 W/m2 CLR
09:24 -14.7 °C -16.8 °C 34601.5 hPa Calm     77 % 0 mm 156.0 W/m2 CLR
09:29 -14.6 °C -16.6 °C 34601.5 hPa Calm     77 % 0 mm 135.0 W/m2 CLR
09:34 -14.4 °C -16.6 °C 34601.5 hPa Calm     76 % 0 mm 200.0 W/m2 CLR
09:39 -14.3 °C -16.6 °C 34601.5 hPa Calm     75 % 0 mm 163.0 W/m2 CLR
09:44 -14.1 °C -16.6 °C 34601.5 hPa Calm     73 % 0 mm 148.0 W/m2 CLR
09:49 -13.9 °C -16.7 °C 34601.5 hPa Calm     71 % 0 mm 197.0 W/m2 CLR
09:54 -13.8 °C -16.6 °C 34601.5 hPa Calm     70 % 0 mm 197.0 W/m2 CLR
09:59 -13.6 °C -16.6 °C 34601.5 hPa Calm     69 % 0 mm 271.0 W/m2 CLR
10:04 -13.4 °C -16.7 °C 34601.5 hPa Calm     66 % 0 mm 241.0 W/m2 CLR
10:09 -13.3 °C -17 °C 34601.5 hPa Calm     63 % 0 mm 306.0 W/m2 CLR
10:14 -13.1 °C -17.1 °C 34601.5 hPa SW 6 km/h 6 km/h 61 % 0 mm 288.0 W/m2 CLR
10:19 -12.9 °C -17.2 °C 34601.5 hPa West 5.1 km/h 5.1 km/h 59 % 0 mm 367.0 W/m2 CLR
10:24 -12.9 °C -17.2 °C 34601.5 hPa NW 35.7 km/h 35.7 km/h 58 % 0 mm 243.0 W/m2 CLR
10:29 -12.9 °C -17.3 °C 34601.5 hPa West 9 km/h 9 km/h 58 % 0 mm 348.0 W/m2 CLR
10:34 -12.8 °C -17.2 °C 34601.5 hPa WNW 9 km/h 9 km/h 58 % 0 mm 341.0 W/m2 CLR
10:39 -12.7 °C -17.2 °C 34601.5 hPa WNW 15 km/h 15 km/h 57 % 0 mm 411.0 W/m2 CLR
10:44 -12.6 °C -17.6 °C 34601.5 hPa WNW 15 km/h 15 km/h 54 % 0 mm 341.0 W/m2 CLR
10:49 -12.6 °C -17.6 °C 34601.5 hPa West 20.9 km/h 20.9 km/h 53 % 0 mm 420.0 W/m2 CLR
10:54 -12.4 °C -17.1 °C 34591.4 hPa WSW 11.9 km/h 11.9 km/h 56 % 0 mm 425.0 W/m2 CLR
10:59 -12.2 °C -17.2 °C 34601.5 hPa WNW 18.2 km/h 18.2 km/h 54 % 0 mm 471.0 W/m2 CLR
11:04 -12.2 °C -17.6 °C 34601.5 hPa West 15 km/h 15 km/h 51 % 0 mm 501.0 W/m2 CLR
11:09 -12.1 °C -17.7 °C 34591.4 hPa West 15 km/h 15 km/h 50 % 0 mm 520.0 W/m2 CLR
11:10 -12.1 °C -17.7 °C 34591.4 hPa NW 15 km/h 15 km/h 50 % 0 mm 508.0 W/m2 CLR
11:15 -12 °C -17.4 °C 34591.4 hPa WSW 15 km/h 15 km/h 51 % 0 mm 547.0 W/m2 CLR
11:20 -11.9 °C -17.7 °C 34591.4 hPa SW 12.9 km/h 12.9 km/h 49 % 0 mm 504.0 W/m2 CLR
11:25 -11.8 °C -17.3 °C 34591.4 hPa WNW 32.8 km/h 32.8 km/h 50 % 0 mm 563.0 W/m2 CLR
11:30 -11.7 °C -17.4 °C 34591.4 hPa NW 9 km/h 9 km/h 49 % 0 mm 540.0 W/m2 CLR
11:35 -11.6 °C -17.7 °C 34591.4 hPa West 11.9 km/h 11.9 km/h 47 % 0 mm 568.0 W/m2 CLR
11:40 -11.6 °C -17.3 °C 34591.4 hPa West 3.1 km/h 3.1 km/h 49 % 0 mm 575.0 W/m2 CLR
11:45 -11.4 °C -17.3 °C 34577.8 hPa SW 6 km/h 6 km/h 48 % 0 mm 580.0 W/m2 CLR
11:50 -11.3 °C -17.4 °C 34577.8 hPa West 17.9 km/h 17.9 km/h 47 % 0 mm 589.0 W/m2 CLR
11:55 -11.3 °C -17.4 °C 34577.8 hPa NNW 10.3 km/h 10.3 km/h 47 % 0 mm 594.0 W/m2 CLR
12:00 -11.3 °C -17.7 °C 34577.8 hPa NNW 15 km/h 15 km/h 45 % 0 mm 601.0 W/m2 CLR
12:05 -11.2 °C -17.5 °C 34577.8 hPa NNW 11.9 km/h 11.9 km/h 46 % 0 mm 606.0 W/m2 CLR
12:10 -11.2 °C -17.6 °C 34577.8 hPa Calm     45 % 0 mm 612.0 W/m2 CLR
12:15 -11 °C -17.4 °C 34577.8 hPa SW 11.9 km/h 11.9 km/h 45 % 0 mm 619.0 W/m2 CLR
12:20 -10.9 °C -17.3 °C 34577.8 hPa WSW 17.9 km/h 17.9 km/h 45 % 0 mm 622.0 W/m2 CLR
12:25 -10.8 °C -17.7 °C 34577.8 hPa NNW 11.9 km/h 11.9 km/h 43 % 0 mm 628.0 W/m2 CLR
12:30 -10.8 °C -17.7 °C 34567.7 hPa WNW 15 km/h 15 km/h 43 % 0 mm 631.0 W/m2 CLR
12:35 -10.7 °C -17.6 °C 34567.7 hPa WNW 12.9 km/h 13.7 km/h 43 % 0 mm 636.0 W/m2 CLR
12:40 -10.7 °C -17.7 °C 34567.7 hPa West 11.9 km/h   42 % 0 mm 638.0 W/m2 CLR
12:45 -10.5 °C -17.7 °C 34554.1 hPa NW 10.3 km/h 10.3 km/h 41 % 0 mm 635.0 W/m2 CLR
12:50 -10.4 °C -17.4 °C 34554.1 hPa NW 11.9 km/h 11.9 km/h 42 % 0 mm 633.0 W/m2 CLR
12:55 -10.4 °C -17.3 °C 34554.1 hPa NW 18.2 km/h 18.2 km/h 43 % 0 mm 649.0 W/m2 CLR
13:00 -10.4 °C -17.4 °C 34554.1 hPa NNW 11.9 km/h 11.9 km/h 42 % 0 mm 649.0 W/m2 CLR
13:05 -10.3 °C -17.6 °C 34554.1 hPa NW 17.9 km/h 17.9 km/h 41 % 0 mm 649.0 W/m2 CLR
13:10 -10.2 °C -17.3 °C 34554.1 hPa NNW 11.9 km/h 11.9 km/h 42 % 0 mm 647.0 W/m2 CLR
13:15 -10.2 °C -17.6 °C 34544 hPa WSW 29.8 km/h 29.8 km/h 40 % 0 mm 649.0 W/m2 CLR
13:20 -10.2 °C -18 °C 34544 hPa Calm     38 % 0 mm 649.0 W/m2 CLR
13:25 -10.1 °C -17.4 °C 34544 hPa NW 12.9 km/h 12.9 km/h 40 % 0 mm 649.0 W/m2 CLR
13:30 -10.1 °C -17.4 °C 34544 hPa NW 15.6 km/h 15.6 km/h 40 % 0 mm 649.0 W/m2 CLR
13:35 -10.1 °C -17.4 °C 34544 hPa NW 29.8 km/h 29.8 km/h 40 % 0 mm 645.0 W/m2 CLR
13:40 -10 °C -17.8 °C 34544 hPa North 9 km/h 9 km/h 38 % 0 mm 642.0 W/m2 CLR
13:45 -9.9 °C -17.4 °C 34533.8 hPa NW 26.9 km/h 26.9 km/h 40 % 0 mm 640.0 W/m2 CLR
13:50 -9.8 °C -17.3 °C 34533.8 hPa NNW 15 km/h 15 km/h 40 % 0 mm 640.0 W/m2 CLR
13:55 -9.9 °C -17.7 °C 34533.8 hPa NNW 10.3 km/h 10.3 km/h 38 % 0 mm 636.0 W/m2 CLR
14:00 -9.8 °C -17.7 °C 34533.8 hPa North 3.1 km/h 3.1 km/h 38 % 0 mm 635.0 W/m2 CLR
14:05 -9.8 °C -17.4 °C 34533.8 hPa Calm     39 % 0 mm 629.0 W/m2 CLR
14:10 -9.6 °C -17.1 °C 34533.8 hPa Calm     40 % 0 mm 626.0 W/m2 CLR
14:15 -9.4 °C -17.7 °C 34533.8 hPa SW 3.1 km/h 3.1 km/h 36 % 0 mm 621.0 W/m2 CLR
14:20 -9.4 °C -17.5 °C 34520.3 hPa Calm     37 % 0 mm 615.0 W/m2 CLR
14:25 -9.3 °C -17.8 °C 34520.3 hPa Calm     35 % 0 mm 608.0 W/m2 CLR
14:30 -9.2 °C -17.6 °C 34520.3 hPa Calm     36 % 0 mm 605.0 W/m2 CLR
14:35 -9.1 °C -17.9 °C 34520.3 hPa Calm     34 % 0 mm 601.0 W/m2 CLR
14:40 -9.2 °C -17.8 °C 34520.3 hPa Calm     35 % 0 mm 592.0 W/m2 CLR
14:45 -9.2 °C -17.7 °C 34520.3 hPa Calm     35 % 0 mm 584.0 W/m2 CLR
14:50 -9.1 °C -17.7 °C 34510.1 hPa Calm     35 % 0 mm 578.0 W/m2 CLR
14:55 -9 °C -17.8 °C 34510.1 hPa Calm     34 % 0 mm 573.0 W/m2 CLR
15:00 -9.1 °C -17.9 °C 34510.1 hPa ENE 9 km/h 9 km/h 34 % 0 mm 564.0 W/m2 CLR
15:05 -9.2 °C -18 °C 34510.1 hPa ESE 6 km/h 6 km/h 34 % 0 mm 555.0 W/m2 CLR
15:10 -9.2 °C -18 °C 34510.1 hPa Calm     34 % 0 mm 547.0 W/m2 CLR
15:15 -9.1 °C -18.1 °C 34510.1 hPa ENE 6 km/h 6 km/h 33 % 0 mm 540.0 W/m2 CLR
15:20 -9 °C -17.8 °C 34510.1 hPa Calm   0.3 km/h 34 % 0 mm 527.0 W/m2 CLR
15:25 -9 °C -18.1 °C 34510.1 hPa Calm     33 % 0 mm 520.0 W/m2 CLR
15:30 -8.9 °C -17.9 °C 34496.6 hPa Calm     33 % 0 mm 506.0 W/m2 CLR
15:35 -8.7 °C -17.6 °C 34496.6 hPa NE 9 km/h 9 km/h 34 % 0 mm 496.0 W/m2 CLR
15:40 -8.7 °C -18 °C 34496.6 hPa Calm     32 % 0 mm 482.0 W/m2 CLR
15:45 -8.7 °C -18 °C 34496.6 hPa Calm     32 % 0 mm 478.0 W/m2 CLR
15:50 -8.4 °C -18 °C 34496.6 hPa ENE 5.1 km/h 5.1 km/h 31 % 0 mm 464.0 W/m2 CLR
15:55 -8.5 °C -18.1 °C 34496.6 hPa Calm     31 % 0 mm 452.0 W/m2 CLR
16:00 -8.5 °C -18.3 °C 34496.6 hPa Calm     30 % 0 mm 441.0 W/m2 CLR
16:05 -8.4 °C -18 °C 34496.6 hPa Calm     31 % 0 mm 429.0 W/m2 CLR
16:10 -8.4 °C -17.9 °C 34496.6 hPa Calm     31 % 0 mm 415.0 W/m2 CLR
16:15 -8.4 °C -17.9 °C 34496.6 hPa Calm     31 % 0 mm 404.0 W/m2 CLR
16:20 -8.4 °C -18.2 °C 34496.6 hPa Calm     30 % 0 mm 392.0 W/m2 CLR
16:25 -8.4 °C -18.3 °C 34496.6 hPa Calm     30 % 0 mm 381.0 W/m2 CLR
16:30 -8.5 °C -18.1 °C 34496.6 hPa ESE 6 km/h 6 km/h 31 % 0 mm 350.0 W/m2 CLR
16:35 -8.6 °C -18.2 °C 34496.6 hPa Calm     31 % 0 mm 308.0 W/m2 CLR
16:40 -8.6 °C -18.2 °C 34496.6 hPa Calm     31 % 0 mm 306.0 W/m2 CLR
16:45 -8.7 °C -18.4 °C 34496.6 hPa ESE 9 km/h 9 km/h 30 % 0 mm 301.0 W/m2 CLR
16:50 -8.8 °C -18.3 °C 34496.6 hPa Calm     31 % 0 mm 308.0 W/m2 CLR
16:55 -8.7 °C -18.2 °C 34486.4 hPa Calm     31 % 0 mm 301.0 W/m2 CLR
17:00 -8.6 °C -18.2 °C 34486.4 hPa Calm     31 % 0 mm 288.0 W/m2 CLR
17:05 -8.6 °C -18.4 °C 34486.4 hPa Calm     30 % 0 mm 214.0 W/m2 CLR
17:10 -8.7 °C -18.5 °C 34486.4 hPa Calm     30 % 0 mm 207.0 W/m2 CLR
17:15 -8.7 °C -18.5 °C 34486.4 hPa Calm     30 % 0 mm 165.0 W/m2 CLR
17:20 -8.7 °C -17.3 °C 34486.4 hPa NE 5.1 km/h 5.1 km/h 35 % 0 mm 186.0 W/m2 CLR
17:25 -8.8 °C -17.4 °C 34496.6 hPa NNE 10.3 km/h 10.3 km/h 35 % 0 mm 192.0 W/m2 CLR
17:30 -8.8 °C -17.4 °C 34496.6 hPa NE 9 km/h 9 km/h 35 % 0 mm 163.0 W/m2 CLR
17:35 -8.9 °C -17.3 °C 34496.6 hPa NE 11.9 km/h 11.9 km/h 36 % 0 mm 139.0 W/m2 CLR
17:40 -9.1 °C -17.4 °C 34496.6 hPa NE 9 km/h 9 km/h 36 % 0 mm 113.0 W/m2 CLR
17:45 -9.1 °C -17.4 °C 34496.6 hPa Calm     36 % 0 mm 130.0 W/m2 CLR
17:51 -9.1 °C -17.4 °C 34496.6 hPa Calm     36 % 0 mm 109.0 W/m2 CLR
17:56 -9.1 °C -17.6 °C 34496.6 hPa Calm     35 % 0 mm 105.0 W/m2 CLR
18:01 -9.1 °C -17.6 °C 34496.6 hPa ENE 6 km/h 6 km/h 35 % 0 mm 74.0 W/m2 CLR
18:06 -9.1 °C -17.7 °C 34510.1 hPa Calm     35 % 0 mm 53.0 W/m2 SCT
18:10 -9.2 °C -16.8 °C 34510.1 hPa ESE 9 km/h 9 km/h 40 % 0 mm 58.0 W/m2 SCT
18:15 -9.4 °C -15.6 °C 34510.1 hPa East 11.9 km/h 11.9 km/h 47 % 0 mm 46.0 W/m2 SCT
18:21 -9.6 °C -15.5 °C 34510.1 hPa ESE 9 km/h 9 km/h 49 % 0 mm 30.0 W/m2 BKN
18:26 -9.9 °C -15.6 °C 34510.1 hPa ESE 11.9 km/h 11.9 km/h 50 % 0 mm 21.0 W/m2 BKN
18:31 -10.1 °C -15.4 °C 34510.1 hPa SE 9 km/h 9 km/h 52 % 0 mm 18.0 W/m2 BKN
18:36 -10.2 °C -15.4 °C 34510.1 hPa SE 10.3 km/h 10.3 km/h 53 % 0 mm 14.0 W/m2 BKN
18:41 -10.4 °C -15.4 °C 34520.3 hPa SE 9 km/h 9 km/h 54 % 0 mm 9.0 W/m2 BKN
18:46 -10.5 °C -15.4 °C 34520.3 hPa SE 11.9 km/h 11.9 km/h 55 % 0 mm 5.0 W/m2 BKN
18:51 -10.7 °C -15.4 °C 34520.3 hPa ESE 9 km/h 9 km/h 56 % 0 mm 0.0 W/m2 OVC
18:56 -10.8 °C -15.4 °C 34520.3 hPa ESE 9 km/h 9 km/h 57 % 0 mm 0.0 W/m2 OVC
19:01 -10.9 °C -15.4 °C 34520.3 hPa SE 9 km/h 9 km/h 58 % 0 mm 0.0 W/m2 CLR
19:06 -11 °C -15.3 °C 34533.8 hPa ESE 9 km/h 9 km/h 59 % 0 mm 0.0 W/m2 CLR
19:11 -11.1 °C -15.3 °C 34533.8 hPa ESE 12.9 km/h 12.9 km/h 60 % 0 mm 0.0 W/m2 CLR
19:16 -11.2 °C -15.3 °C 34533.8 hPa ESE 11.9 km/h 11.9 km/h 60 % 0 mm 0.0 W/m2 CLR
19:21 -11.2 °C -15.4 °C 34533.8 hPa Calm     60 % 0 mm 0.0 W/m2 CLR
19:26 -11.3 °C -15.4 °C 34533.8 hPa Calm     61 % 0 mm 0.0 W/m2 CLR
19:31 -11.4 °C -15.4 °C 34533.8 hPa Calm     61 % 0 mm 0.0 W/m2 CLR
19:36 -11.5 °C -15.4 °C 34533.8 hPa Calm     62 % 0 mm 0.0 W/m2 CLR
19:41 -11.6 °C -15.4 °C 34533.8 hPa Calm     63 % 0 mm 0.0 W/m2 CLR
19:46 -11.7 °C -15.4 °C 34533.8 hPa ESE 7.7 km/h 7.7 km/h 63 % 0 mm 0.0 W/m2 CLR
19:51 -11.8 °C -15.5 °C 34533.8 hPa Calm     63 % 0 mm 0.0 W/m2 CLR
19:56 -11.8 °C -15.5 °C 34544 hPa Calm     64 % 0 mm 0.0 W/m2 CLR
20:01 -11.9 °C -15.4 °C 34544 hPa Calm     65 % 0 mm 0.0 W/m2 CLR
20:06 -12 °C -15.5 °C 34544 hPa Calm     65 % 0 mm 0.0 W/m2 CLR
20:11 -12.1 °C -15.4 °C 34544 hPa Calm     66 % 0 mm 0.0 W/m2 CLR
20:16 -12.2 °C -15.5 °C 34544 hPa Calm     66 % 0 mm 0.0 W/m2 CLR
20:21 -12.2 °C -15.4 °C 34544 hPa Calm     67 % 0 mm 0.0 W/m2 CLR
20:26 -12.3 °C -15.6 °C 34544 hPa Calm     67 % 0 mm 0.0 W/m2 CLR
20:31 -12.4 °C -15.5 °C 34554.1 hPa Calm     68 % 0 mm 0.0 W/m2 CLR
20:36 -12.5 °C -15.5 °C 34554.1 hPa Calm     69 % 0 mm 0.0 W/m2 CLR
20:41 -12.6 °C -15.6 °C 34554.1 hPa Calm     69 % 0 mm 0.0 W/m2 CLR
20:46 -12.6 °C -15.5 °C 34554.1 hPa Calm     70 % 0 mm 0.0 W/m2 CLR
20:51 -12.7 °C -15.6 °C 34554.1 hPa Calm     70 % 0 mm 0.0 W/m2 CLR
20:56 -12.8 °C -15.7 °C 34554.1 hPa Calm     70 % 0 mm 0.0 W/m2 CLR
21:01 -13 °C -15.7 °C 34554.1 hPa Calm     71 % 0 mm 0.0 W/m2 CLR
21:06 -13.2 °C -15.7 °C 34567.7 hPa Calm     73 % 0 mm 0.0 W/m2 CLR
21:11 -13.3 °C -15.7 °C 34567.7 hPa Calm     74 % 0 mm 0.0 W/m2 CLR
21:16 -13.3 °C -15.7 °C 34567.7 hPa Calm     74 % 0 mm 0.0 W/m2 CLR
21:21 -13.4 °C -15.8 °C 34577.8 hPa Calm     75 % 0 mm 0.0 W/m2 CLR
21:26 -13.6 °C -15.9 °C 34577.8 hPa Calm     75 % 0 mm 0.0 W/m2 CLR
21:31 -13.8 °C -15.9 °C 34577.8 hPa Calm     76 % 0 mm 0.0 W/m2 CLR
21:36 -13.9 °C -16 °C 34577.8 hPa Calm     77 % 0 mm 0.0 W/m2 CLR
21:41 -14 °C -15.9 °C 34577.8 hPa Calm     78 % 0 mm 0.0 W/m2 CLR
21:46 -14.1 °C -16 °C 34591.4 hPa Calm     79 % 0 mm 0.0 W/m2 CLR
21:51 -14.2 °C -16.1 °C 34591.4 hPa Calm     79 % 0 mm 0.0 W/m2 CLR
21:56 -14.3 °C -16.1 °C 34591.4 hPa Calm     80 % 0 mm 0.0 W/m2 CLR
22:01 -14.4 °C -16.2 °C 34591.4 hPa Calm     80 % 0 mm 0.0 W/m2 CLR
22:06 -14.6 °C -16.3 °C 34591.4 hPa Calm     80 % 0 mm 0.0 W/m2 CLR
22:11 -14.6 °C -16.3 °C 34591.4 hPa Calm     81 % 0 mm 0.0 W/m2 CLR
22:16 -14.8 °C -16.3 °C 34591.4 hPa Calm     82 % 0 mm 0.0 W/m2 CLR
22:21 -14.8 °C -16.4 °C 34601.5 hPa Calm     82 % 0 mm 0.0 W/m2 CLR
22:26 -14.9 °C -16.6 °C 34601.5 hPa Calm     82 % 0 mm 0.0 W/m2 CLR
22:31 -15.1 °C -16.6 °C 34601.5 hPa Calm     83 % 0 mm 0.0 W/m2 CLR
22:36 -15.2 °C -16.6 °C 34601.5 hPa Calm     83 % 0 mm 0.0 W/m2 CLR
22:41 -15.2 °C -16.6 °C 34601.5 hPa Calm     84 % 0 mm 0.0 W/m2 CLR
22:46 -15.3 °C -16.7 °C 34601.5 hPa Calm     84 % 0 mm 0.0 W/m2 CLR
22:51 -15.4 °C -16.7 °C 34601.5 hPa Calm     84 % 0 mm 0.0 W/m2 CLR
22:56 -15.4 °C -16.7 °C 34601.5 hPa Calm     85 % 0 mm 0.0 W/m2 CLR
23:01 -15.5 °C -16.8 °C 34601.5 hPa Calm     85 % 0 mm 0.0 W/m2 CLR
23:06 -15.6 °C -16.7 °C 34601.5 hPa Calm     86 % 0 mm 0.0 W/m2 CLR
23:11 -15.6 °C -16.8 °C 34601.5 hPa Calm     86 % 0 mm 0.0 W/m2 CLR
23:16 -15.7 °C -16.8 °C 34601.5 hPa Calm     86 % 0 mm 0.0 W/m2 CLR
23:21 -15.7 °C -16.9 °C 34611.7 hPa Calm     86 % 0 mm 0.0 W/m2 CLR
23:26 -15.8 °C -16.9 °C 34611.7 hPa Calm     86 % 0 mm 0.0 W/m2 CLR
23:31 -15.8 °C -17 °C 34601.5 hPa Calm     86 % 0 mm 0.0 W/m2 CLR
23:36 -15.9 °C -17 °C 34611.7 hPa Calm     87 % 0 mm 0.0 W/m2 CLR
23:41 -16 °C -17.1 °C 34611.7 hPa Calm     87 % 0 mm 0.0 W/m2 CLR
23:46 -16.1 °C -17.1 °C 34611.7 hPa Calm     88 % 0 mm 0.0 W/m2 CLR
23:51 -16.1 °C -17.1 °C 34611.7 hPa Calm     88 % 0 mm 0.0 W/m2 CLR
23:56 -16 °C -17 °C 34611.7 hPa Calm     88 % 0 mm 0.0 W/m2 CLR
Lo Temps de Massalio
Compliments of Weather Underground - 1.25 mb